Time;durP1;ratioP1;P1;durP2;ratioP2;P2;SDS_P1;SDS_P2;PMS_P1;PMS_P2;Temp;Humidity;BMP_temperature;BMP_pressure;BME280_temperature;BME280_humidity;BME280_pressure;Samples;Min_cycle;Max_cycle;Signal;HPM_P1;HPM_P2
2023/08/08 00:02:03;;;;;;;1999.90;999.90;;;13.80;99.90;;;;;;4972561;28;20436;-67
2023/08/08 00:04:29;;;;;;;1999.90;999.90;;;13.70;99.90;;;;;;4962755;28;20439;-66
2023/08/08 00:06:56;;;;;;;1999.90;999.90;;;13.70;99.90;;;;;;4961646;28;20816;-67
2023/08/08 00:09:25;;;;;;;1999.90;999.90;;;13.70;99.90;;;;;;4971591;28;20495;-66
2023/08/08 00:11:51;;;;;;;1999.90;999.90;;;13.60;99.90;;;;;;4966119;28;20455;-67
2023/08/08 00:14:18;;;;;;;1999.90;999.90;;;13.70;99.90;;;;;;4971324;28;20435;-67
2023/08/08 00:16:45;;;;;;;1999.90;999.90;;;13.70;99.90;;;;;;4971622;28;20440;-66
2023/08/08 00:19:11;;;;;;;1999.90;999.90;;;13.70;99.90;;;;;;4962786;28;20936;-67
2023/08/08 00:21:38;;;;;;;1999.90;999.90;;;13.70;99.90;;;;;;4971271;28;20444;-67
2023/08/08 00:24:05;;;;;;;1999.90;999.90;;;13.80;99.90;;;;;;4971429;28;20514;-67
2023/08/08 00:26:33;;;;;;;1999.90;999.90;;;13.70;99.90;;;;;;4971392;28;20483;-67
2023/08/08 00:29:00;;;;;;;1999.90;999.90;;;13.80;99.90;;;;;;4971493;28;20439;-67
2023/08/08 00:31:26;;;;;;;1999.90;999.90;;;13.80;99.90;;;;;;4970915;28;20467;-67
2023/08/08 00:33:53;;;;;;;1999.90;999.90;;;13.80;99.90;;;;;;4959976;28;20448;-67
2023/08/08 00:36:20;;;;;;;1999.90;999.90;;;13.80;99.90;;;;;;4970042;28;20440;-67
2023/08/08 00:38:46;;;;;;;1999.90;999.90;;;13.80;99.90;;;;;;4971204;28;20800;-66
2023/08/08 00:41:13;;;;;;;1999.90;999.90;;;13.80;99.90;;;;;;4971260;28;20993;-67
2023/08/08 00:43:43;;;;;;;1999.90;999.90;;;13.80;99.90;;;;;;4970673;28;20521;-66
2023/08/08 00:46:10;;;;;;;1999.90;999.90;;;14.00;99.90;;;;;;4970145;28;21011;-68
2023/08/08 00:48:36;;;;;;;1999.90;999.90;;;13.80;99.90;;;;;;4969416;28;20436;-65
2023/08/08 00:51:03;;;;;;;1999.90;999.90;;;13.80;99.90;;;;;;4969916;28;20455;-67
2023/08/08 00:53:31;;;;;;;1999.90;999.90;;;13.80;99.90;;;;;;4969191;28;20442;-66
2023/08/08 00:55:59;;;;;;;1999.90;999.90;;;13.80;99.90;;;;;;4969560;28;20472;-68
2023/08/08 00:58:26;;;;;;;1999.90;999.90;;;13.80;99.90;;;;;;4967825;28;20436;-66
2023/08/08 01:00:59;;;;;;;1999.90;999.90;;;13.80;99.90;;;;;;4965811;28;20822;-67
2023/08/08 01:03:26;;;;;;;1999.90;999.90;;;13.80;99.90;;;;;;4968203;28;20935;-67
2023/08/08 01:06:02;;;;;;;1999.90;999.90;;;13.80;99.90;;;;;;4962020;28;20439;-67
2023/08/08 01:08:36;;;;;;;1999.90;999.90;;;13.90;99.90;;;;;;4963598;28;20832;-67
2023/08/08 01:11:04;;;;;;;1999.90;999.90;;;13.90;99.90;;;;;;4965225;28;20472;-66
2023/08/08 01:13:32;;;;;;;1999.90;999.90;;;13.90;99.90;;;;;;4969158;28;20463;-67
2023/08/08 01:16:00;;;;;;;1999.90;999.90;;;13.80;99.90;;;;;;4971382;28;20448;-67
2023/08/08 01:18:28;;;;;;;1999.90;999.90;;;13.90;99.90;;;;;;4971072;28;20468;-66
2023/08/08 01:20:56;;;;;;;1999.90;999.90;;;13.80;99.90;;;;;;4967144;28;20435;-67
2023/08/08 01:23:29;;;;;;;1999.90;999.90;;;13.90;99.90;;;;;;4962245;28;20446;-67
2023/08/08 01:25:58;;;;;;;1999.90;999.90;;;13.80;99.90;;;;;;4970467;28;21234;-65
2023/08/08 01:28:25;;;;;;;1999.90;999.90;;;13.80;99.90;;;;;;4970564;28;20515;-64
2023/08/08 01:30:53;;;;;;;1999.90;999.90;;;13.80;99.90;;;;;;4970809;28;22493;-67
2023/08/08 01:33:20;;;;;;;1999.90;999.90;;;13.80;99.90;;;;;;4969749;28;20448;-67
2023/08/08 01:35:53;;;;;;;1999.90;999.90;;;13.80;99.90;;;;;;4962898;28;20464;-67
2023/08/08 01:38:27;;;;;;;1999.90;999.90;;;13.80;99.90;;;;;;4970621;28;20440;-67
2023/08/08 01:40:58;;;;;;;1999.90;999.90;;;13.80;99.90;;;;;;4970436;28;20886;-65
2023/08/08 01:43:25;;;;;;;1999.90;999.90;;;13.80;99.90;;;;;;4970391;28;20436;-67
2023/08/08 01:45:53;;;;;;;1999.90;999.90;;;13.80;99.90;;;;;;4970849;28;20467;-67
2023/08/08 01:48:19;;;;;;;1999.90;999.90;;;13.80;99.90;;;;;;4966151;28;20447;-67
2023/08/08 01:50:46;;;;;;;1999.90;999.90;;;13.80;99.90;;;;;;4969601;28;20490;-67
2023/08/08 01:53:13;;;;;;;1999.90;999.90;;;13.80;99.90;;;;;;4970603;28;20439;-66
2023/08/08 01:55:39;;;;;;;1999.90;999.90;;;13.80;99.90;;;;;;4970740;28;20436;-67
2023/08/08 01:58:07;;;;;;;1999.90;999.90;;;13.70;99.90;;;;;;4970425;28;20777;-67
2023/08/08 02:00:34;;;;;;;1999.90;999.90;;;13.80;99.90;;;;;;4970140;28;20447;-66
2023/08/08 02:03:02;;;;;;;1999.90;999.90;;;13.80;99.90;;;;;;4964951;28;20448;-66
2023/08/08 02:05:28;;;;;;;1999.90;999.90;;;13.80;99.90;;;;;;4964957;28;20863;-67
2023/08/08 02:07:55;;;;;;;1999.90;999.90;;;13.80;99.90;;;;;;4969770;28;20447;-67
2023/08/08 02:10:22;;;;;;;1999.90;999.90;;;13.80;99.90;;;;;;4970845;28;20439;-67
2023/08/08 02:12:48;;;;;;;1999.90;999.90;;;13.80;99.90;;;;;;4973669;28;20440;-67
2023/08/08 02:15:16;;;;;;;1999.90;999.90;;;13.80;99.90;;;;;;4972942;28;20436;-65
2023/08/08 02:17:43;;;;;;;1999.90;999.90;;;13.80;99.90;;;;;;4972805;28;20435;-67
2023/08/08 02:20:11;;;;;;;1999.90;999.90;;;13.80;99.90;;;;;;4973974;28;20448;-67
2023/08/08 02:22:38;;;;;;;1999.90;999.90;;;13.90;99.90;;;;;;4972869;28;20859;-64
2023/08/08 02:25:05;;;;;;;1999.90;999.90;;;13.90;99.90;;;;;;4966391;28;20856;-67
2023/08/08 02:27:32;;;;;;;1999.90;999.90;;;13.90;99.90;;;;;;4973154;28;20932;-66
2023/08/08 02:29:59;;;;;;;1999.90;999.90;;;13.80;99.90;;;;;;4969245;28;20940;-65
2023/08/08 02:32:27;;;;;;;1999.90;999.90;;;13.90;99.90;;;;;;4968153;28;20448;-67
2023/08/08 02:34:53;;;;;;;1999.90;999.90;;;13.80;99.90;;;;;;4974373;28;20855;-67
2023/08/08 02:37:20;;;;;;;1999.90;999.90;;;13.90;99.90;;;;;;4973487;28;20443;-63
2023/08/08 02:39:47;;;;;;;1999.90;999.90;;;13.80;99.90;;;;;;4973139;28;20436;-67
2023/08/08 02:42:13;;;;;;;1999.90;999.90;;;13.80;99.90;;;;;;4967212;28;20442;-67
2023/08/08 02:44:40;;;;;;;1999.90;999.90;;;13.80;99.90;;;;;;4962654;28;20939;-67
2023/08/08 02:47:07;;;;;;;1999.90;999.90;;;13.90;99.90;;;;;;4969888;28;21010;-67
2023/08/08 02:49:35;;;;;;;1999.90;999.90;;;13.80;99.90;;;;;;4972495;28;20610;-65
2023/08/08 02:52:02;;;;;;;1999.90;999.90;;;13.80;99.90;;;;;;4965239;28;20568;-67
2023/08/08 02:54:28;;;;;;;1999.90;999.90;;;13.80;99.90;;;;;;4971242;28;20908;-66
2023/08/08 02:56:55;;;;;;;1999.90;999.90;;;13.90;99.90;;;;;;4968915;28;20918;-66
2023/08/08 02:59:22;;;;;;;1999.90;999.90;;;13.80;99.90;;;;;;4962094;28;20451;-67
2023/08/08 03:01:49;;;;;;;1999.90;999.90;;;13.80;99.90;;;;;;4973677;28;20444;-67
2023/08/08 03:04:15;;;;;;;1999.90;999.90;;;13.80;99.90;;;;;;4973656;28;20495;-67
2023/08/08 03:06:43;;;;;;;1999.90;999.90;;;13.70;99.90;;;;;;4973149;28;20927;-67
2023/08/08 03:09:10;;;;;;;1999.90;999.90;;;13.70;99.90;;;;;;4971715;28;20432;-67
2023/08/08 03:11:37;;;;;;;1999.90;999.90;;;13.70;99.90;;;;;;4964147;28;20436;-67
2023/08/08 03:14:04;;;;;;;1999.90;999.90;;;13.70;99.90;;;;;;4972960;28;20624;-67
2023/08/08 03:16:30;;;;;;;1999.90;999.90;;;13.70;99.90;;;;;;4972690;28;20946;-67
2023/08/08 03:18:58;;;;;;;1999.90;999.90;;;13.80;99.90;;;;;;4971742;28;20482;-67
2023/08/08 03:21:25;;;;;;;1999.90;999.90;;;13.80;99.90;;;;;;4972728;28;20523;-67
2023/08/08 03:23:53;;;;;;;1999.90;999.90;;;13.80;99.90;;;;;;4964629;28;20436;-67
2023/08/08 03:26:19;;;;;;;1999.90;999.90;;;13.80;99.90;;;;;;4960502;28;20822;-67
2023/08/08 03:28:50;;;;;;;1999.90;999.90;;;13.90;99.90;;;;;;4963958;28;20436;-67
2023/08/08 03:31:17;;;;;;;1999.90;999.90;;;14.00;99.90;;;;;;4972961;28;20450;-67
2023/08/08 03:33:45;;;;;;;1999.90;999.90;;;14.00;99.90;;;;;;4972238;28;21226;-67
2023/08/08 03:36:12;;;;;;;1999.90;999.90;;;14.10;99.90;;;;;;4971500;28;20448;-67
2023/08/08 03:38:39;;;;;;;1999.90;999.90;;;14.10;99.90;;;;;;4972300;28;20447;-68
2023/08/08 03:41:08;;;;;;;1999.90;999.90;;;14.20;99.90;;;;;;4972288;28;20451;-67
2023/08/08 03:43:34;;;;;;;1999.90;999.90;;;14.20;99.90;;;;;;4972108;28;20440;-66
2023/08/08 03:46:01;;;;;;;1999.90;999.90;;;14.30;99.90;;;;;;4972230;28;20447;-66
2023/08/08 03:48:28;;;;;;;1999.90;999.90;;;14.20;99.90;;;;;;4968738;28;20440;-66
2023/08/08 03:50:54;;;;;;;1999.90;999.90;;;14.20;99.90;;;;;;4965864;28;20436;-67
2023/08/08 03:53:21;;;;;;;1999.90;999.90;;;14.20;99.90;;;;;;4969726;28;20435;-67
2023/08/08 03:55:48;;;;;;;1999.90;999.90;;;14.10;99.90;;;;;;4971292;28;20962;-67
2023/08/08 03:58:16;;;;;;;1999.90;999.90;;;14.10;99.90;;;;;;4972322;28;20440;-67
2023/08/08 04:00:46;;;;;;;1999.90;999.90;;;14.10;99.90;;;;;;4972392;28;20436;-67
2023/08/08 04:03:14;;;;;;;1999.90;999.90;;;14.10;99.90;;;;;;4966591;28;20438;-67
2023/08/08 04:05:40;;;;;;;1999.90;999.90;;;14.10;99.90;;;;;;4958141;28;20437;-65
2023/08/08 04:08:07;;;;;;;1999.90;999.90;;;14.20;99.90;;;;;;4971095;28;20485;-66
2023/08/08 04:10:34;;;;;;;1999.90;999.90;;;14.10;99.90;;;;;;4972139;28;20939;-67
2023/08/08 04:13:00;;;;;;;1999.90;999.90;;;14.10;99.90;;;;;;4972411;28;20447;-65
2023/08/08 04:15:29;;;;;;;1999.90;999.90;;;14.10;99.90;;;;;;4971705;28;20440;-66
2023/08/08 04:17:55;;;;;;;1999.90;999.90;;;14.20;99.90;;;;;;4969992;28;20652;-67
2023/08/08 04:20:22;;;;;;;1999.90;999.90;;;14.20;99.90;;;;;;4971770;28;20442;-66
2023/08/08 04:22:49;;;;;;;1999.90;999.90;;;14.20;99.90;;;;;;4972139;28;20447;-67
2023/08/08 04:25:16;;;;;;;1999.90;999.90;;;14.10;99.90;;;;;;4965780;28;20438;-67
2023/08/08 04:27:43;;;;;;;1999.90;999.90;;;14.10;99.90;;;;;;4971376;28;20875;-67
2023/08/08 04:30:10;;;;;;;1999.90;999.90;;;14.10;99.90;;;;;;4971891;28;20448;-66
2023/08/08 04:32:38;;;;;;;1999.90;999.90;;;14.20;99.90;;;;;;4968636;28;20467;-66
2023/08/08 04:35:05;;;;;;;1999.90;999.90;;;14.20;99.90;;;;;;4970467;28;20436;-66
2023/08/08 04:37:32;;;;;;;1999.90;999.90;;;14.20;99.90;;;;;;4971075;28;20432;-65
2023/08/08 04:39:58;;;;;;;1999.90;999.90;;;14.30;99.90;;;;;;4971708;28;20435;-67
2023/08/08 04:42:25;;;;;;;1999.90;999.90;;;14.30;99.90;;;;;;4971987;28;20491;-67
2023/08/08 04:44:52;;;;;;;1999.90;999.90;;;14.20;99.90;;;;;;4969890;28;20548;-67
2023/08/08 04:47:18;;;;;;;1999.90;999.90;;;14.20;99.90;;;;;;4961680;28;20448;-67
2023/08/08 04:49:46;;;;;;;1999.90;999.90;;;14.20;99.90;;;;;;4971073;28;20444;-67
2023/08/08 04:52:13;;;;;;;1999.90;999.90;;;14.30;99.90;;;;;;4971849;28;20435;-67
2023/08/08 04:54:40;;;;;;;1999.90;999.90;;;14.10;99.90;;;;;;4970872;28;20436;-66
2023/08/08 04:57:07;;;;;;;1999.90;999.90;;;14.20;99.90;;;;;;4970823;28;20444;-67
2023/08/08 04:59:33;;;;;;;1999.90;999.90;;;14.10;99.90;;;;;;4959433;28;20440;-67
2023/08/08 05:02:00;;;;;;;1999.90;999.90;;;14.10;99.90;;;;;;4964083;28;20817;-64
2023/08/08 05:04:27;;;;;;;1999.90;999.90;;;14.30;99.90;;;;;;4970357;28;20855;-67
2023/08/08 05:06:55;;;;;;;1999.90;999.90;;;14.20;99.90;;;;;;4971029;28;20848;-67
2023/08/08 05:09:26;;;;;;;1999.90;999.90;;;14.20;99.90;;;;;;4970767;28;20435;-65
2023/08/08 05:11:53;;;;;;;1999.90;999.90;;;14.10;99.90;;;;;;4969557;28;20472;-66
2023/08/08 05:14:19;;;;;;;1999.90;999.90;;;14.20;99.90;;;;;;4970302;28;20495;-64
2023/08/08 05:16:46;;;;;;;1999.90;999.90;;;14.10;99.90;;;;;;4971112;28;20514;-67
2023/08/08 05:19:13;;;;;;;1999.90;999.90;;;14.10;99.90;;;;;;4970813;28;20515;-65
2023/08/08 05:21:40;;;;;;;1999.90;999.90;;;14.10;99.90;;;;;;4971198;28;20439;-67
2023/08/08 05:24:08;;;;;;;1999.90;999.90;;;14.30;99.90;;;;;;4966239;28;20445;-66
2023/08/08 05:26:34;;;;;;;1999.90;999.90;;;14.40;99.90;;;;;;4964245;28;20538;-65
2023/08/08 05:29:01;;;;;;;1999.90;999.90;;;14.30;99.90;;;;;;4965549;28;20481;-66
2023/08/08 05:31:28;;;;;;;1999.90;999.90;;;14.30;99.90;;;;;;4965737;28;20441;-65
2023/08/08 05:33:55;;;;;;;1999.90;999.90;;;14.50;99.90;;;;;;4970446;28;20436;-67
2023/08/08 05:36:22;;;;;;;1999.90;999.90;;;14.80;99.90;;;;;;4971141;28;20444;-65
2023/08/08 05:38:48;;;;;;;1999.90;999.90;;;14.90;99.90;;;;;;4968457;28;20432;-67
2023/08/08 05:41:16;;;;;;;1999.90;999.90;;;15.00;99.90;;;;;;4970852;28;20444;-66
2023/08/08 05:43:43;;;;;;;1999.90;999.90;;;15.00;99.90;;;;;;4969944;28;20448;-67
2023/08/08 05:46:10;;;;;;;1999.90;999.90;;;15.10;99.90;;;;;;4972514;28;20440;-67
2023/08/08 05:48:36;;;;;;;1999.90;999.90;;;15.30;99.90;;;;;;4974539;28;20440;-67
2023/08/08 05:51:04;;;;;;;1999.90;999.90;;;15.30;99.90;;;;;;4974419;28;20451;-67
2023/08/08 05:53:31;;;;;;;1999.90;999.90;;;15.20;99.90;;;;;;4970897;28;20444;-67
2023/08/08 05:55:58;;;;;;;1999.90;999.90;;;15.30;99.90;;;;;;4974787;28;20513;-67
2023/08/08 05:58:26;;;;;;;1999.90;999.90;;;15.30;99.90;;;;;;4974142;28;20474;-67
2023/08/08 06:00:53;;;;;;;1999.90;999.90;;;15.40;99.90;;;;;;4974066;28;20491;-68
2023/08/08 06:03:20;;;;;;;1999.90;999.90;;;15.40;99.90;;;;;;4973924;28;20439;-67
2023/08/08 06:05:46;;;;;;;1999.90;999.90;;;15.30;99.90;;;;;;4973811;28;20439;-67
2023/08/08 06:08:15;;;;;;;1999.90;999.90;;;15.30;99.90;;;;;;4965885;28;20435;-67
2023/08/08 06:10:42;;;;;;;1999.90;999.90;;;15.30;99.90;;;;;;4972955;28;20486;-67
2023/08/08 06:13:09;;;;;;;1999.90;999.90;;;15.40;99.90;;;;;;4972839;28;20467;-65
2023/08/08 06:15:37;;;;;;;1999.90;999.90;;;15.50;99.90;;;;;;4972277;28;20440;-67
2023/08/08 06:18:04;;;;;;;1999.90;999.90;;;15.50;99.90;;;;;;4963116;28;20532;-67
2023/08/08 06:20:31;;;;;;;1999.90;999.90;;;15.50;99.90;;;;;;4969252;28;20432;-65
2023/08/08 06:22:57;;;;;;;1999.90;999.90;;;15.60;99.90;;;;;;4972597;28;20528;-66
2023/08/08 06:25:24;;;;;;;1999.90;999.90;;;15.60;99.90;;;;;;4970744;28;20432;-67
2023/08/08 06:27:51;;;;;;;1999.90;999.90;;;15.60;99.90;;;;;;4973799;28;20448;-67
2023/08/08 06:30:18;;;;;;;1999.90;999.90;;;15.50;99.90;;;;;;4965052;28;20437;-67
2023/08/08 06:32:46;;;;;;;1999.90;999.90;;;15.40;99.90;;;;;;4962987;28;20442;-68
2023/08/08 06:35:13;;;;;;;1999.90;999.90;;;15.70;99.90;;;;;;4972578;28;20924;-67
2023/08/08 06:37:39;;;;;;;1999.90;999.90;;;15.50;99.90;;;;;;4993205;23;20530;-67
2023/08/08 06:40:08;;;;;;;1999.90;999.90;;;15.60;99.90;;;;;;4967103;28;20432;-67
2023/08/08 06:42:34;;;;;;;1999.90;999.90;;;15.80;99.90;;;;;;4968058;28;20818;-67
2023/08/08 06:45:01;;;;;;;1999.90;999.90;;;15.80;99.90;;;;;;4966263;28;20451;-67
2023/08/08 06:47:28;;;;;;;1999.90;999.90;;;15.80;99.90;;;;;;4957098;28;20441;-67
2023/08/08 06:49:56;;;;;;;1999.90;999.90;;;16.00;99.90;;;;;;4968048;28;20440;-67
2023/08/08 06:52:23;;;;;;;1999.90;999.90;;;16.10;99.90;;;;;;4962293;28;20463;-67
2023/08/08 06:54:49;;;;;;;1999.90;999.90;;;16.20;99.90;;;;;;4965399;28;20433;-68
2023/08/08 06:57:16;;;;;;;1999.90;999.90;;;16.00;99.90;;;;;;4966969;28;20444;-67
2023/08/08 06:59:43;;;;;;;1999.90;999.90;;;16.00;99.90;;;;;;4970078;28;20432;-67
2023/08/08 07:02:10;;;;;;;1999.90;999.90;;;16.10;99.90;;;;;;4970761;28;20878;-67
2023/08/08 07:04:36;;;;;;;1999.90;999.90;;;16.10;99.90;;;;;;4968036;28;20471;-67
2023/08/08 07:07:04;;;;;;;1999.90;999.90;;;16.00;99.90;;;;;;4965676;28;20879;-68
2023/08/08 07:09:32;;;;;;;1999.90;999.90;;;15.90;99.90;;;;;;4973516;28;20439;-68
2023/08/08 07:11:59;;;;;;;1999.90;999.90;;;16.10;99.90;;;;;;4973836;28;20909;-68
2023/08/08 07:14:26;;;;;;;1999.90;999.90;;;16.10;99.90;;;;;;4974007;28;20424;-67
2023/08/08 07:16:53;;;;;;;1999.90;999.90;;;16.10;99.90;;;;;;4963831;28;20463;-66
2023/08/08 07:19:20;;;;;;;1999.90;999.90;;;16.20;99.90;;;;;;4962039;28;20426;-67
2023/08/08 07:21:46;;;;;;;1999.90;999.90;;;16.10;99.90;;;;;;4970430;28;20420;-68
2023/08/08 07:24:14;;;;;;;1999.90;999.90;;;16.10;99.90;;;;;;4964898;28;20478;-69
2023/08/08 07:26:41;;;;;;;1999.90;999.90;;;16.20;99.90;;;;;;4958289;28;20429;-65
2023/08/08 07:29:08;;;;;;;1999.90;999.90;;;16.50;99.90;;;;;;4955538;28;20500;-66
2023/08/08 07:31:34;;;;;;;1999.90;999.90;;;16.70;99.90;;;;;;4962022;28;20433;-65
2023/08/08 07:34:01;;;;;;;1999.90;999.90;;;16.80;99.90;;;;;;4968050;28;20635;-66
2023/08/08 07:36:28;;;;;;;1999.90;999.90;;;16.60;99.90;;;;;;4971933;28;20443;-68
2023/08/08 07:38:58;;;;;;;1999.90;999.90;;;16.60;99.90;;;;;;4963934;28;20448;-66
2023/08/08 07:41:27;;;;;;;1999.90;999.90;;;16.70;99.90;;;;;;4965326;28;20444;-66
2023/08/08 07:43:53;;;;;;;1999.90;999.90;;;17.00;99.90;;;;;;4962992;28;20465;-65
2023/08/08 07:46:20;;;;;;;1999.90;999.90;;;17.00;99.90;;;;;;4970436;28;20451;-68
2023/08/08 07:48:47;;;;;;;1999.90;999.90;;;17.10;99.90;;;;;;4971001;28;20532;-64
2023/08/08 07:51:13;;;;;;;1999.90;999.90;;;17.40;99.90;;;;;;4969460;28;20528;-65
2023/08/08 07:53:40;;;;;;;1999.90;999.90;;;17.50;99.90;;;;;;4954009;29;20422;-66
2023/08/08 07:56:07;;;;;;;1999.90;999.90;;;17.30;99.90;;;;;;4954092;29;20410;-67
2023/08/08 07:58:35;;;;;;;1999.90;999.90;;;17.10;99.90;;;;;;4963204;28;20440;-67
2023/08/08 08:01:01;;;;;;;1999.90;999.90;;;17.00;99.90;;;;;;4954798;28;20910;-67
2023/08/08 08:03:28;;;;;;;1999.90;999.90;;;17.10;99.90;;;;;;4953565;29;20422;-65
2023/08/08 08:05:55;;;;;;;1999.90;999.90;;;17.30;99.90;;;;;;4953737;29;20422;-65
2023/08/08 08:08:21;;;;;;;1999.90;999.90;;;17.60;99.90;;;;;;4952877;28;20417;-65
2023/08/08 08:10:49;;;;;;;1999.90;999.90;;;18.10;99.90;;;;;;4962862;28;20440;-65
2023/08/08 08:13:15;;;;;;;1999.90;999.90;;;18.50;99.90;;;;;;4953585;29;20512;-64
2023/08/08 08:15:44;;;;;;;1999.90;999.90;;;18.70;99.90;;;;;;4953499;29;20508;-65
2023/08/08 08:18:12;;;;;;;1999.90;999.90;;;18.80;99.90;;;;;;4953233;29;20424;-64
2023/08/08 08:20:39;;;;;;;1999.90;999.90;;;18.70;99.90;;;;;;4953299;29;20424;-64
2023/08/08 08:23:05;;;;;;;1999.90;999.90;;;18.50;99.90;;;;;;4955976;28;20459;-64
2023/08/08 08:25:32;;;;;;;1999.90;999.90;;;18.60;99.90;;;;;;4961199;28;20430;-65
2023/08/08 08:27:59;;;;;;;1999.90;999.90;;;18.70;99.90;;;;;;4953140;29;20414;-65
2023/08/08 08:30:26;;;;;;;1999.90;999.90;;;19.20;99.90;;;;;;4955257;28;20465;-64
2023/08/08 08:32:54;;;;;;;1999.90;999.90;;;19.10;99.90;;;;;;4960841;28;20425;-66
2023/08/08 08:35:21;;;;;;;1999.90;999.90;;;19.10;99.90;;;;;;4953288;29;20509;-65
2023/08/08 08:37:48;;;;;;;1999.90;999.90;;;19.10;99.90;;;;;;4952888;29;20420;-64
2023/08/08 08:40:15;;;;;;;1999.90;999.90;;;19.10;99.90;;;;;;4952869;29;20441;-65
2023/08/08 08:42:42;;;;;;;1999.90;999.90;;;19.00;99.90;;;;;;4953604;28;20549;-65
2023/08/08 08:45:10;;;;;;;1999.90;999.90;;;19.30;99.90;;;;;;4960695;28;20917;-64
2023/08/08 08:47:38;;;;;;;1999.90;999.90;;;19.60;99.90;;;;;;4952940;29;20456;-64
2023/08/08 08:50:07;;;;;;;1999.90;999.90;;;19.90;99.90;;;;;;4952656;29;20438;-65
2023/08/08 08:52:34;;;;;;;1999.90;999.90;;;19.50;99.90;;;;;;4957564;28;20436;-65
2023/08/08 08:55:02;;;;;;;1999.90;999.90;;;19.80;99.90;;;;;;4962345;28;20420;-65
2023/08/08 08:57:29;;;;;;;1999.90;999.90;;;20.00;99.90;;;;;;4952589;29;20456;-64
2023/08/08 08:59:56;;;;;;;1999.90;999.90;;;20.20;99.90;;;;;;4958862;28;20436;-66
2023/08/08 09:02:24;;;;;;;1999.90;999.90;;;20.10;99.90;;;;;;4960379;28;20814;-65
2023/08/08 09:04:52;;;;;;;1999.90;999.90;;;19.90;99.90;;;;;;4952727;29;20425;-64
2023/08/08 09:07:24;;;;;;;1999.90;999.90;;;19.70;99.90;;;;;;4952452;29;20429;-65
2023/08/08 09:09:51;;;;;;;1999.90;999.90;;;19.80;99.90;;;;;;4952298;29;20492;-64
2023/08/08 09:12:19;;;;;;;1999.90;999.90;;;20.00;99.90;;;;;;4954799;28;20442;-65
2023/08/08 09:14:46;;;;;;;1999.90;999.90;;;20.00;99.90;;;;;;4960564;28;20429;-64
2023/08/08 09:17:13;;;;;;;1999.90;999.90;;;19.70;99.90;;;;;;4952392;29;20422;-64
2023/08/08 09:19:43;;;;;;;1999.90;999.90;;;19.80;99.90;;;;;;4951973;28;21011;-65
2023/08/08 09:22:09;;;;;;;1999.90;999.90;;;19.90;99.90;;;;;;4952396;29;20421;-64
2023/08/08 09:24:40;;;;;;;1999.90;999.90;;;19.80;99.90;;;;;;4953211;28;20546;-65
2023/08/08 09:27:07;;;;;;;1999.90;999.90;;;20.10;99.90;;;;;;4959963;28;20628;-65
2023/08/08 09:29:34;;;;;;;1999.90;999.90;;;19.90;99.90;;;;;;4952120;28;20425;-65
2023/08/08 09:32:03;;;;;;;1999.90;999.90;;;19.90;99.90;;;;;;4952376;29;20399;-65
2023/08/08 09:34:30;;;;;;;1999.90;999.90;;;19.70;99.90;;;;;;4952202;29;20449;-65
2023/08/08 09:36:57;;;;;;;1999.90;999.90;;;19.70;99.90;;;;;;4952075;28;20859;-65
2023/08/08 09:39:23;;;;;;;1999.90;999.90;;;19.30;99.90;;;;;;4959226;28;20462;-63
2023/08/08 09:41:52;;;;;;;1999.90;999.90;;;19.10;99.90;;;;;;4960238;28;20425;-64
2023/08/08 09:44:17;;;;;;;1999.90;999.90;;;18.80;99.90;;;;;;4955882;28;20444;-66
2023/08/08 09:46:44;;;;;;;1999.90;999.90;;;18.80;99.90;;;;;;4959970;28;20429;-66
2023/08/08 09:49:12;;;;;;;1999.90;999.90;;;18.40;99.90;;;;;;4951974;29;20930;-64
2023/08/08 09:51:39;;;;;;;1999.90;999.90;;;18.60;99.90;;;;;;4951887;29;20473;-64
2023/08/08 09:54:06;;;;;;;1999.90;999.90;;;18.80;99.90;;;;;;4951882;29;20890;-68
2023/08/08 09:56:34;;;;;;;1999.90;999.90;;;18.80;99.90;;;;;;4957550;28;20494;-68
2023/08/08 09:59:05;;;;;;;1999.90;999.90;;;19.00;99.90;;;;;;4960943;28;20440;-67
2023/08/08 10:01:32;;;;;;;1999.90;999.90;;;19.00;99.90;;;;;;4959763;28;20429;-67
2023/08/08 10:04:00;;;;;;;1999.90;999.90;;;18.70;99.90;;;;;;4952015;29;20421;-67
2023/08/08 10:06:27;;;;;;;1999.90;999.90;;;18.80;99.90;;;;;;4951793;29;20418;-64
2023/08/08 10:08:54;;;;;;;1999.90;999.90;;;19.20;99.90;;;;;;4959893;28;21018;-65
2023/08/08 10:11:23;;;;;;;1999.90;999.90;;;19.50;99.90;;;;;;4959683;28;20437;-64
2023/08/08 10:13:51;;;;;;;1999.90;999.90;;;19.60;99.90;;;;;;4951868;29;20917;-65
2023/08/08 10:16:20;;;;;;;1999.90;999.90;;;19.80;99.90;;;;;;4958917;28;20456;-64
2023/08/08 10:18:55;;;;;;;1999.90;999.90;;;19.80;99.90;;;;;;4968428;28;20443;-66
2023/08/08 10:21:23;;;;;;;1999.90;999.90;;;19.90;99.90;;;;;;4962923;28;20448;-64
2023/08/08 10:23:51;;;;;;;1999.90;999.90;;;20.20;99.90;;;;;;4954624;28;20445;-64
2023/08/08 10:26:20;;;;;;;1999.90;999.90;;;20.10;99.90;;;;;;4965550;28;20436;-64
2023/08/08 10:28:55;;;;;;;1999.90;999.90;;;20.10;99.90;;;;;;4959481;28;20429;-64
2023/08/08 10:31:23;;;;;;;1999.90;999.90;;;20.40;99.90;;;;;;4951571;28;20880;-67
2023/08/08 10:33:50;;;;;;;1999.90;999.90;;;20.60;99.90;;;;;;4968761;28;20446;-64
2023/08/08 10:36:17;;;;;;;1999.90;999.90;;;20.70;99.90;;;;;;4962702;28;20435;-65
2023/08/08 10:38:46;;;;;;;1999.90;999.90;;;20.70;99.90;;;;;;4966750;28;20443;-65
2023/08/08 10:41:15;;;;;;;1999.90;999.90;;;20.30;99.90;;;;;;4971821;28;20436;-64
2023/08/08 10:43:49;;;;;;;1999.90;999.90;;;20.80;99.90;;;;;;4973234;28;20452;-65
2023/08/08 10:46:25;;;;;;;1999.90;999.90;;;21.10;99.90;;;;;;4969367;28;20465;-65
2023/08/08 10:48:53;;;;;;;1999.90;999.90;;;21.40;99.90;;;;;;4970510;28;20836;-65
2023/08/08 10:51:20;;;;;;;1999.90;999.90;;;21.70;99.90;;;;;;4974121;28;20444;-63
2023/08/08 10:53:47;;;;;;;1999.90;999.90;;;21.10;99.90;;;;;;4974356;28;20443;-64
2023/08/08 10:56:14;;;;;;;1999.90;999.90;;;20.70;99.90;;;;;;4971198;28;20470;-64
2023/08/08 10:58:43;;;;;;;1999.90;999.90;;;20.20;99.90;;;;;;4967993;28;20435;-64
2023/08/08 11:01:12;;;;;;;1999.90;999.90;;;19.80;99.90;;;;;;4963664;28;20438;-64
2023/08/08 11:03:41;;;;;;;1999.90;999.90;;;19.60;99.90;;;;;;4970466;28;20515;-66
2023/08/08 11:06:09;;;;;;;1999.90;999.90;;;19.50;99.90;;;;;;4972613;28;20453;-64
2023/08/08 11:08:38;;;;;;;1999.90;999.90;;;19.60;99.90;;;;;;4965729;28;20800;-64
2023/08/08 11:11:05;;;;;;;1999.90;999.90;;;20.10;99.90;;;;;;4956264;28;20444;-64
2023/08/08 11:13:33;;;;;;;1999.90;999.90;;;20.00;99.90;;;;;;4956965;28;20476;-64
2023/08/08 11:16:01;;;;;;;1999.90;999.90;;;20.30;99.90;;;;;;4962208;28;20464;-65
2023/08/08 11:18:28;;;;;;;1999.90;999.90;;;20.80;99.90;;;;;;4961489;28;20438;-64
2023/08/08 11:20:56;;;;;;;1999.90;999.90;;;21.20;99.90;;;;;;4954611;29;20421;-64
2023/08/08 11:23:23;;;;;;;1999.90;999.90;;;21.10;99.90;;;;;;4954642;28;20996;-64
2023/08/08 11:25:50;;;;;;;1999.90;999.90;;;21.00;99.90;;;;;;4964744;28;20448;-65
2023/08/08 11:28:17;;;;;;;1999.90;999.90;;;20.90;99.90;;;;;;4963515;28;20856;-66
2023/08/08 11:30:46;;;;;;;1999.90;999.90;;;20.10;99.90;;;;;;4965598;28;20459;-64
2023/08/08 11:33:14;;;;;;;1999.90;999.90;;;19.80;99.90;;;;;;4967298;28;20795;-64
2023/08/08 11:35:46;;;;;;;1999.90;999.90;;;19.40;99.90;;;;;;4963042;28;20479;-64
2023/08/08 11:38:14;;;;;;;1999.90;999.90;;;19.40;99.90;;;;;;4971075;28;20467;-66
2023/08/08 11:40:41;;;;;;;1999.90;999.90;;;19.40;99.90;;;;;;4969791;28;20443;-65
2023/08/08 11:43:08;;;;;;;1999.90;999.90;;;19.70;99.90;;;;;;4968619;28;20444;-64
2023/08/08 11:45:35;;;;;;;1999.90;999.90;;;19.50;99.90;;;;;;4969768;28;20470;-65
2023/08/08 11:48:03;;;;;;;1999.90;999.90;;;19.60;99.90;;;;;;4969628;28;20444;-65
2023/08/08 11:50:30;;;;;;;1999.90;999.90;;;19.60;99.90;;;;;;4971714;28;20444;-65
2023/08/08 11:52:57;;;;;;;1999.90;999.90;;;19.60;99.90;;;;;;4957370;28;20417;-65
2023/08/08 11:55:29;;;;;;;1999.90;999.90;;;19.40;99.90;;;;;;4963387;28;20930;-65
2023/08/08 11:57:59;;;;;;;1999.90;999.90;;;19.30;99.90;;;;;;4961498;28;20891;-64
2023/08/08 12:00:29;;;;;;;1999.90;999.90;;;19.20;99.90;;;;;;4954071;28;20444;-66